Barnett Township, Illinois
Current Conditions -  °F | °C
As of 10:35 AM on Saturday 20 Dec 2014 (Local Time) from KAAA Reporting Station
Overcast Overcast  
Wind Chill: 27°   Ceiling: 6000
Heat Index: 33°   Visibility: 7mi
Dew Point: 29°   Wind: 8mph
Humidity: 85%   Direction: 150°SSE
Pressure: 30.3"   Gusts: NA
Location:  40.143°N, 88.9637°W
Report Text: KAAA 201635Z AUTO 15007KT 7SM OVC060 01/M01 A3030 RMK AO2 T00081014
Loading
Personal Weather Stations






























Interactive Weather Map New forecast layout! Learn more

10-Day Weather Forecast

Advertisements
Track Severe Weather on mobile